Time;durP1;ratioP1;P1;durP2;ratioP2;P2;SDS_P1;SDS_P2;PMS_P1;PMS_P2;Temp;Humidity;BMP_temperature;BMP_pressure;BME280_temperature;BME280_humidity;BME280_pressure;Samples;Min_cycle;Max_cycle;Signal;HPM_P1;HPM_P2
2023/07/30 00:00:44;;;;;;;6.03;3.60;;;19.30;64.20;;;;;;5048609;28;20032;-84
2023/07/30 00:03:12;;;;;;;5.85;3.13;;;19.50;63.70;;;;;;5068281;28;20021;-75
2023/07/30 00:05:40;;;;;;;4.53;3.13;;;19.60;63.70;;;;;;5059643;28;20021;-76
2023/07/30 00:08:08;;;;;;;4.90;3.50;;;19.70;62.70;;;;;;5059645;28;20024;-77
2023/07/30 00:10:36;;;;;;;6.43;3.15;;;19.90;61.50;;;;;;5063229;28;20028;-76
2023/07/30 00:13:04;;;;;;;5.82;3.33;;;20.00;61.40;;;;;;5054471;28;20379;-79
2023/07/30 00:15:31;;;;;;;5.70;3.53;;;20.10;61.40;;;;;;5051129;28;20040;-78
2023/07/30 00:17:59;;;;;;;5.53;2.97;;;20.30;61.10;;;;;;5053456;28;20495;-77
2023/07/30 00:20:27;;;;;;;4.70;2.80;;;20.50;61.10;;;;;;5054271;28;20025;-75
2023/07/30 00:22:54;;;;;;;4.82;3.05;;;20.70;59.70;;;;;;5053402;28;20021;-77
2023/07/30 00:25:22;;;;;;;4.60;2.80;;;20.80;59.20;;;;;;5043691;28;20021;-76
2023/07/30 00:27:49;;;;;;;5.18;2.90;;;21.00;59.00;;;;;;5061780;28;20029;-74
2023/07/30 00:30:17;;;;;;;4.25;2.72;;;21.10;59.00;;;;;;5056488;28;20031;-75
2023/07/30 00:32:45;;;;;;;4.88;2.20;;;21.20;58.60;;;;;;5046299;28;20041;-75
2023/07/30 00:35:12;;;;;;;5.75;2.38;;;21.50;57.70;;;;;;5040894;28;20028;-75
2023/07/30 00:37:40;;;;;;;4.03;2.25;;;21.70;57.90;;;;;;5042934;28;20404;-75
2023/07/30 00:40:08;;;;;;;4.30;1.90;;;21.80;56.30;;;;;;5041369;28;20483;-75
2023/07/30 00:42:35;;;;;;;5.43;1.80;;;22.00;55.60;;;;;;5047748;28;20051;-78
2023/07/30 00:45:03;;;;;;;5.53;1.98;;;22.20;54.40;;;;;;5053239;28;20100;-76
2023/07/30 00:47:31;;;;;;;3.72;2.17;;;22.30;54.40;;;;;;5050798;28;20039;-75
2023/07/30 00:49:59;;;;;;;3.78;2.08;;;22.50;54.40;;;;;;5049315;28;20360;-82
2023/07/30 00:52:26;;;;;;;5.93;2.20;;;22.50;54.30;;;;;;5049254;28;20049;-75
2023/07/30 00:54:57;;;;;;;5.07;2.20;;;22.60;53.30;;;;;;5056053;28;20033;-76
2023/07/30 00:57:25;;;;;;;4.75;1.90;;;22.90;53.00;;;;;;5055724;28;20020;-74
2023/07/30 00:59:53;;;;;;;3.63;2.00;;;23.00;52.80;;;;;;5060479;28;20036;-77
2023/07/30 01:02:21;;;;;;;2.60;2.10;;;23.10;52.60;;;;;;5062346;28;20364;-76
2023/07/30 01:04:50;;;;;;;3.35;1.98;;;23.30;52.10;;;;;;5063520;28;20028;-78
2023/07/30 01:07:17;;;;;;;3.17;2.22;;;23.50;51.50;;;;;;5050504;28;20051;-80
2023/07/30 01:09:46;;;;;;;5.07;1.80;;;23.80;51.30;;;;;;5054745;28;20021;-75
2023/07/30 01:12:14;;;;;;;4.28;1.77;;;24.00;49.60;;;;;;5048932;28;20128;-78
2023/07/30 01:14:43;;;;;;;3.35;1.63;;;23.90;49.50;;;;;;5041108;28;20052;-77
2023/07/30 01:17:12;;;;;;;1.70;1.30;;;23.90;49.50;;;;;;5047533;28;20045;-76
2023/07/30 01:19:39;;;;;;;3.22;1.27;;;23.80;49.20;;;;;;5045647;28;20433;-74
2023/07/30 01:22:07;;;;;;;2.72;1.40;;;23.80;48.90;;;;;;5056689;28;20432;-76
2023/07/30 01:24:34;;;;;;;2.00;1.40;;;24.00;48.30;;;;;;5039203;28;20037;-75
2023/07/30 01:27:12;;;;;;;2.85;1.40;;;24.00;48.20;;;;;;5050963;28;20384;-79
2023/07/30 01:29:43;;;;;;;4.30;1.80;;;24.00;49.00;;;;;;5052260;28;20024;-82
2023/07/30 01:32:13;;;;;;;3.40;1.58;;;24.10;48.20;;;;;;5052851;28;20100;-75
2023/07/30 01:34:43;;;;;;;3.13;1.42;;;24.30;47.40;;;;;;5052104;28;20548;-74
2023/07/30 01:37:13;;;;;;;3.15;1.38;;;24.10;47.10;;;;;;5051496;28;20029;-79
2023/07/30 01:39:42;;;;;;;1.52;1.20;;;24.00;47.70;;;;;;5052488;28;20511;-75
2023/07/30 01:42:13;;;;;;;2.25;1.35;;;23.90;46.60;;;;;;5052579;28;20107;-73
2023/07/30 01:44:40;;;;;;;1.58;1.25;;;23.80;47.40;;;;;;5052570;28;20032;-74
2023/07/30 01:47:08;;;;;;;2.03;1.48;;;23.90;47.60;;;;;;5051297;28;20025;-73
2023/07/30 01:49:35;;;;;;;3.72;1.83;;;23.90;46.80;;;;;;5052209;28;20048;-74
2023/07/30 01:52:03;;;;;;;2.83;1.35;;;23.90;47.10;;;;;;5051536;28;20411;-74
2023/07/30 01:54:30;;;;;;;3.33;1.00;;;24.00;46.80;;;;;;5052600;28;20134;-74
2023/07/30 01:56:58;;;;;;;2.50;1.15;;;24.10;46.40;;;;;;5055405;28;20059;-75
2023/07/30 01:59:25;;;;;;;1.58;1.10;;;24.10;45.90;;;;;;5069257;28;20033;-75
2023/07/30 02:01:52;;;;;;;1.60;1.25;;;24.20;46.30;;;;;;5055015;28;20033;-74
2023/07/30 02:04:20;;;;;;;3.38;1.40;;;24.20;46.20;;;;;;5052222;28;20025;-77
2023/07/30 02:06:48;;;;;;;1.65;1.10;;;24.30;46.50;;;;;;5050179;28;20056;-77
2023/07/30 02:09:15;;;;;;;1.88;1.20;;;24.30;45.60;;;;;;5070914;28;20025;-79
2023/07/30 02:11:43;;;;;;;2.00;1.00;;;24.30;45.60;;;;;;5051521;28;20029;-74
2023/07/30 02:14:11;;;;;;;3.03;1.00;;;24.30;45.80;;;;;;5049689;28;20021;-74
2023/07/30 02:16:38;;;;;;;2.15;1.10;;;24.30;45.90;;;;;;5048242;28;20041;-75
2023/07/30 02:19:06;;;;;;;1.70;1.00;;;24.30;45.50;;;;;;5050768;28;20036;-75
2023/07/30 02:21:36;;;;;;;2.22;1.00;;;24.30;45.60;;;;;;5066460;28;20032;-75
2023/07/30 02:24:03;;;;;;;1.67;0.90;;;24.30;45.50;;;;;;5064826;28;20029;-76
2023/07/30 02:26:30;;;;;;;1.90;1.10;;;24.20;45.20;;;;;;5065580;28;20025;-80
2023/07/30 02:29:00;;;;;;;2.20;1.17;;;24.20;44.90;;;;;;5056834;28;20021;-75
2023/07/30 02:31:27;;;;;;;2.15;1.33;;;24.20;45.10;;;;;;5037372;28;20029;-74
2023/07/30 02:33:55;;;;;;;3.08;0.90;;;24.20;45.70;;;;;;5053247;28;20036;-74
2023/07/30 02:36:22;;;;;;;1.65;0.90;;;24.20;45.80;;;;;;5054632;28;20506;-74
2023/07/30 02:38:50;;;;;;;3.42;1.73;;;24.30;45.40;;;;;;5061430;28;20120;-75
2023/07/30 02:41:17;;;;;;;1.77;0.95;;;24.30;44.80;;;;;;5055567;28;20025;-75
2023/07/30 02:43:45;;;;;;;3.05;1.00;;;24.30;45.10;;;;;;5059484;28;20025;-74
2023/07/30 02:46:12;;;;;;;1.88;1.25;;;24.30;45.40;;;;;;5069892;28;20402;-74
2023/07/30 02:48:40;;;;;;;0.90;0.90;;;24.30;45.60;;;;;;5060028;28;20229;-74
2023/07/30 02:51:07;;;;;;;1.38;1.10;;;24.30;45.50;;;;;;5055352;28;20017;-75
2023/07/30 02:53:34;;;;;;;2.05;1.27;;;24.30;45.30;;;;;;5054199;28;20479;-75
2023/07/30 02:56:02;;;;;;;2.88;1.20;;;24.30;45.50;;;;;;5072323;28;20029;-75
2023/07/30 02:58:29;;;;;;;2.00;1.10;;;24.30;45.50;;;;;;5054470;28;20090;-74
2023/07/30 03:01:05;;;;;;;2.22;1.20;;;24.30;45.10;;;;;;5054235;28;20031;-73
2023/07/30 03:03:33;;;;;;;2.03;1.10;;;24.30;44.90;;;;;;5052537;28;20040;-76
2023/07/30 03:06:04;;;;;;;2.22;1.00;;;24.30;45.40;;;;;;5045870;28;20037;-85
2023/07/30 03:08:31;;;;;;;2.13;1.15;;;24.30;45.30;;;;;;5037800;28;20411;-80
2023/07/30 03:11:00;;;;;;;1.85;1.15;;;24.30;44.90;;;;;;5054962;28;20414;-75
2023/07/30 03:13:27;;;;;;;1.63;1.08;;;24.40;45.20;;;;;;5053459;28;20120;-79
2023/07/30 03:15:54;;;;;;;1.52;1.20;;;24.40;44.70;;;;;;5055178;28;20045;-74
2023/07/30 03:18:24;;;;;;;1.92;1.30;;;24.40;44.90;;;;;;5054010;28;20036;-73
2023/07/30 03:20:57;;;;;;;3.25;1.20;;;24.40;44.40;;;;;;5052740;28;20061;-78
2023/07/30 03:23:24;;;;;;;1.73;1.30;;;24.50;44.10;;;;;;5055298;28;20047;-73
2023/07/30 03:25:52;;;;;;;2.17;1.30;;;24.40;44.40;;;;;;5051921;28;20028;-75
2023/07/30 03:28:19;;;;;;;2.25;1.20;;;24.40;44.40;;;;;;5048752;28;20044;-74
2023/07/30 03:30:46;;;;;;;1.40;1.30;;;24.50;44.20;;;;;;5047887;28;20075;-80
2023/07/30 03:33:14;;;;;;;2.50;1.20;;;24.50;44.40;;;;;;5039517;28;20056;-82
2023/07/30 03:35:42;;;;;;;1.27;0.93;;;24.60;44.20;;;;;;5060359;28;20021;-78
2023/07/30 03:38:09;;;;;;;1.98;1.00;;;24.60;44.20;;;;;;5057214;28;20102;-76
2023/07/30 03:40:37;;;;;;;2.83;1.10;;;24.60;44.10;;;;;;5048863;28;20037;-76
2023/07/30 03:43:04;;;;;;;3.83;1.50;;;24.70;44.20;;;;;;5051753;28;20494;-77
2023/07/30 03:45:32;;;;;;;1.70;1.20;;;24.70;43.70;;;;;;5053217;28;20029;-76
2023/07/30 03:48:00;;;;;;;1.35;1.10;;;24.80;43.60;;;;;;5049594;28;20053;-78
2023/07/30 03:50:27;;;;;;;1.52;0.98;;;24.80;43.80;;;;;;5053301;28;20536;-75
2023/07/30 03:52:54;;;;;;;1.60;1.02;;;24.80;43.70;;;;;;5043833;28;20091;-78
2023/07/30 03:55:22;;;;;;;3.13;1.20;;;24.90;43.40;;;;;;5043194;28;20032;-75
2023/07/30 03:57:49;;;;;;;2.53;1.10;;;24.80;43.90;;;;;;5052442;28;20025;-75
2023/07/30 04:00:17;;;;;;;4.00;1.38;;;24.80;43.80;;;;;;5048925;28;20546;-77
2023/07/30 04:02:44;;;;;;;4.20;1.80;;;24.90;44.10;;;;;;5058036;28;20024;-75
2023/07/30 04:05:15;;;;;;;2.95;1.30;;;24.90;44.10;;;;;;5042522;28;20041;-81
2023/07/30 04:07:42;;;;;;;1.55;1.05;;;24.90;42.60;;;;;;5048453;28;20039;-83
2023/07/30 04:10:10;;;;;;;1.90;1.30;;;25.10;43.00;;;;;;5050890;28;21095;-82
2023/07/30 04:12:37;;;;;;;3.65;1.08;;;25.00;41.90;;;;;;5047409;28;20017;-83
2023/07/30 04:15:09;;;;;;;1.30;0.95;;;25.00;41.10;;;;;;5050317;28;20029;-76
2023/07/30 04:17:38;;;;;;;1.98;1.10;;;25.10;40.20;;;;;;5053226;28;20045;-77
2023/07/30 04:20:07;;;;;;;1.25;1.00;;;25.10;39.50;;;;;;5052110;28;20039;-77
2023/07/30 04:22:35;;;;;;;2.50;1.48;;;25.20;40.00;;;;;;5052881;28;20025;-75
2023/07/30 04:25:04;;;;;;;2.05;1.38;;;25.20;39.00;;;;;;5051403;28;20028;-81
2023/07/30 04:27:34;;;;;;;0.95;0.90;;;25.20;39.60;;;;;;5040734;28;20078;-82
2023/07/30 04:30:02;;;;;;;2.75;1.20;;;25.20;39.60;;;;;;5051005;28;20052;-78
2023/07/30 04:32:30;;;;;;;1.92;1.20;;;25.20;39.90;;;;;;5044623;28;20053;-77
2023/07/30 04:34:57;;;;;;;1.10;1.10;;;25.10;38.60;;;;;;5051625;28;20063;-83
2023/07/30 04:37:25;;;;;;;1.23;0.90;;;25.10;39.50;;;;;;5048058;28;20029;-86
2023/07/30 04:39:54;;;;;;;2.35;1.45;;;25.00;39.10;;;;;;5053758;28;20041;-87
2023/07/30 04:42:21;;;;;;;1.27;1.00;;;25.10;39.80;;;;;;5054627;28;20056;-84
2023/07/30 04:44:48;;;;;;;4.15;1.58;;;25.10;39.50;;;;;;5051748;28;20053;-78
2023/07/30 04:47:16;;;;;;;2.75;1.40;;;25.20;39.50;;;;;;5053528;28;20021;-75
2023/07/30 04:49:43;;;;;;;1.83;1.20;;;25.10;38.90;;;;;;5046649;28;20029;-75
2023/07/30 04:52:11;;;;;;;1.50;1.00;;;25.00;39.30;;;;;;5033921;28;20021;-84
2023/07/30 04:54:38;;;;;;;1.35;1.02;;;25.00;38.80;;;;;;5050646;28;20139;-75
2023/07/30 04:57:07;;;;;;;2.72;1.50;;;25.00;38.40;;;;;;5055248;28;20021;-81
2023/07/30 04:59:39;;;;;;;2.45;1.35;;;25.00;39.90;;;;;;5054817;28;20032;-78
2023/07/30 05:02:07;;;;;;;1.15;1.05;;;25.00;40.10;;;;;;5039392;28;20037;-76
2023/07/30 05:04:35;;;;;;;1.98;1.00;;;25.10;40.20;;;;;;5038166;28;20032;-77
2023/07/30 05:07:02;;;;;;;1.58;1.10;;;25.10;39.90;;;;;;5052973;28;20475;-77
2023/07/30 05:09:29;;;;;;;2.83;1.30;;;25.20;39.60;;;;;;5050435;28;20043;-76
2023/07/30 05:11:57;;;;;;;2.22;1.58;;;25.10;39.80;;;;;;5043941;28;20025;-76
2023/07/30 05:14:26;;;;;;;1.95;1.38;;;25.10;39.90;;;;;;5046447;28;20036;-78
2023/07/30 05:16:56;;;;;;;1.40;1.23;;;25.10;39.70;;;;;;5047061;28;20099;-84
2023/07/30 05:19:24;;;;;;;2.92;1.40;;;25.10;39.80;;;;;;5046648;28;20049;-77
2023/07/30 05:21:57;;;;;;;1.77;1.25;;;25.10;40.30;;;;;;5043251;28;20056;-78
2023/07/30 05:24:25;;;;;;;2.10;1.20;;;25.00;40.60;;;;;;5050157;28;20031;-77
2023/07/30 05:26:55;;;;;;;3.53;1.20;;;25.10;39.90;;;;;;5060096;28;20025;-78
2023/07/30 05:29:22;;;;;;;1.10;1.00;;;25.10;40.20;;;;;;5049677;28;20116;-78
2023/07/30 05:31:50;;;;;;;1.50;1.13;;;25.10;39.70;;;;;;5048155;28;20254;-76
2023/07/30 05:34:17;;;;;;;2.47;1.20;;;25.10;39.60;;;;;;5045325;28;20204;-78
2023/07/30 05:36:45;;;;;;;1.27;1.13;;;25.10;39.60;;;;;;5048388;28;20043;-77
2023/07/30 05:39:12;;;;;;;2.17;1.50;;;25.10;39.40;;;;;;5046009;28;20460;-84
2023/07/30 05:41:41;;;;;;;1.67;1.27;;;25.10;39.10;;;;;;5057609;28;20018;-79
2023/07/30 05:44:08;;;;;;;1.60;1.33;;;25.10;39.50;;;;;;5045579;28;20132;-80
2023/07/30 05:46:35;;;;;;;2.83;1.40;;;25.00;39.70;;;;;;5053592;28;20026;-77
2023/07/30 05:49:03;;;;;;;1.60;1.00;;;24.90;38.80;;;;;;5047417;28;20021;-88
2023/07/30 05:51:33;;;;;;;2.55;1.30;;;24.90;40.80;;;;;;5044275;28;20083;-79
2023/07/30 05:54:01;;;;;;;1.38;1.27;;;24.80;39.40;;;;;;5037741;28;20108;-77
2023/07/30 05:56:33;;;;;;;1.50;1.20;;;24.80;37.80;;;;;;5048331;28;20021;-80
2023/07/30 05:59:01;;;;;;;2.70;1.00;;;24.70;37.90;;;;;;5050543;28;20123;-78
2023/07/30 06:01:28;;;;;;;1.23;1.13;;;24.70;38.40;;;;;;5040943;28;20028;-80
2023/07/30 06:03:55;;;;;;;1.50;1.23;;;24.60;38.50;;;;;;5057477;28;20028;-82
2023/07/30 06:06:27;;;;;;;2.38;1.38;;;24.60;38.80;;;;;;5066095;28;20387;-77
2023/07/30 06:08:54;;;;;;;2.10;1.27;;;24.50;38.40;;;;;;5055854;28;20021;-76
2023/07/30 06:11:22;;;;;;;1.30;1.20;;;24.50;37.70;;;;;;5052985;28;20026;-79
2023/07/30 06:13:52;;;;;;;1.45;1.35;;;24.40;38.30;;;;;;5054206;28;20023;-80
2023/07/30 06:16:20;;;;;;;1.77;1.30;;;24.40;38.80;;;;;;5051595;28;20053;-77
2023/07/30 06:18:51;;;;;;;2.08;1.48;;;24.30;38.70;;;;;;5055446;28;20480;-79
2023/07/30 06:21:21;;;;;;;2.55;1.60;;;24.30;38.40;;;;;;5060798;28;20016;-78
2023/07/30 06:23:49;;;;;;;3.00;1.45;;;24.20;37.30;;;;;;5065937;28;20104;-77
2023/07/30 06:26:16;;;;;;;1.48;1.17;;;24.20;37.90;;;;;;5053737;28;20028;-78
2023/07/30 06:28:44;;;;;;;1.77;1.48;;;24.10;38.50;;;;;;5053940;28;20386;-78
2023/07/30 06:31:11;;;;;;;3.25;1.67;;;24.10;39.20;;;;;;5051515;28;20426;-77
2023/07/30 06:33:39;;;;;;;1.95;1.38;;;24.00;39.20;;;;;;5051908;28;20052;-77
2023/07/30 06:36:06;;;;;;;1.65;1.42;;;23.90;39.70;;;;;;5056373;28;20048;-77
2023/07/30 06:38:33;;;;;;;3.58;1.60;;;23.80;40.80;;;;;;5060865;28;20032;-78
2023/07/30 06:41:01;;;;;;;2.00;1.10;;;23.80;40.60;;;;;;5057190;28;20083;-78
2023/07/30 06:43:28;;;;;;;2.45;1.30;;;23.80;41.20;;;;;;5058076;28;20094;-80
2023/07/30 06:45:56;;;;;;;1.75;1.38;;;23.70;40.40;;;;;;5054650;28;20091;-79
2023/07/30 06:48:23;;;;;;;1.45;1.23;;;23.70;40.60;;;;;;5057944;28;20115;-79
2023/07/30 06:50:50;;;;;;;2.70;1.70;;;23.60;40.90;;;;;;5074535;28;20406;-80
2023/07/30 06:53:21;;;;;;;2.45;1.10;;;23.60;41.20;;;;;;5058599;28;20048;-80
2023/07/30 06:55:48;;;;;;;1.50;1.10;;;23.50;40.60;;;;;;5055377;28;20048;-77
2023/07/30 06:58:16;;;;;;;2.25;1.30;;;23.40;41.50;;;;;;5050262;28;20021;-87
2023/07/30 07:00:43;;;;;;;6.50;1.27;;;23.30;41.30;;;;;;5061339;28;20078;-77
2023/07/30 07:03:10;;;;;;;2.83;1.20;;;23.30;41.30;;;;;;5063397;28;20032;-77
2023/07/30 07:05:38;;;;;;;2.70;1.20;;;23.20;41.90;;;;;;5058754;28;20037;-78
2023/07/30 07:08:05;;;;;;;1.38;1.15;;;23.20;42.20;;;;;;5057846;28;20024;-84
2023/07/30 07:10:33;;;;;;;1.63;1.40;;;23.10;42.90;;;;;;5048954;28;20514;-76
2023/07/30 07:13:00;;;;;;;1.67;1.58;;;23.10;43.20;;;;;;5059540;28;20029;-78
2023/07/30 07:15:27;;;;;;;3.08;1.85;;;23.00;43.60;;;;;;5065147;28;20028;-79
2023/07/30 07:17:55;;;;;;;2.60;1.63;;;22.90;42.80;;;;;;5065527;28;20368;-77
2023/07/30 07:20:22;;;;;;;1.73;1.40;;;22.80;43.50;;;;;;5054195;28;20033;-77
2023/07/30 07:22:50;;;;;;;2.78;1.77;;;22.80;42.80;;;;;;5035358;28;20018;-78
2023/07/30 07:25:19;;;;;;;5.65;2.00;;;22.80;43.10;;;;;;5064765;28;20356;-77
2023/07/30 07:27:46;;;;;;;4.97;2.10;;;22.70;43.80;;;;;;5055120;28;20021;-79
2023/07/30 07:30:14;;;;;;;4.32;1.95;;;22.70;44.10;;;;;;5053726;28;20100;-77
2023/07/30 07:32:41;;;;;;;2.45;1.85;;;22.50;43.10;;;;;;5053472;28;20033;-77
2023/07/30 07:35:10;;;;;;;4.85;2.20;;;22.50;42.60;;;;;;5053193;28;20052;-85
2023/07/30 07:37:37;;;;;;;3.40;2.30;;;22.40;43.10;;;;;;5052729;28;20040;-81
2023/07/30 07:40:05;;;;;;;6.57;2.35;;;22.40;43.20;;;;;;5058751;28;20498;-78
2023/07/30 07:42:33;;;;;;;4.90;2.50;;;22.30;43.10;;;;;;5069479;28;20033;-85
2023/07/30 07:45:00;;;;;;;9.07;2.55;;;22.20;43.20;;;;;;5053569;28;20486;-79
2023/07/30 07:47:28;;;;;;;11.10;3.15;;;22.10;43.80;;;;;;5054847;28;20054;-77
2023/07/30 07:49:55;;;;;;;7.93;3.33;;;22.00;45.10;;;;;;5072900;28;20043;-78
2023/07/30 07:52:22;;;;;;;4.68;2.75;;;21.90;44.60;;;;;;5066324;28;20028;-77
2023/07/30 07:54:50;;;;;;;4.63;2.65;;;21.80;47.60;;;;;;5064656;28;20025;-79
2023/07/30 07:57:17;;;;;;;5.78;2.65;;;21.60;48.60;;;;;;5052966;28;20563;-77
2023/07/30 07:59:44;;;;;;;5.78;3.17;;;21.60;48.90;;;;;;5053151;28;20405;-78
2023/07/30 08:02:12;;;;;;;5.32;2.90;;;21.40;47.40;;;;;;5063166;28;20027;-79
2023/07/30 08:04:40;;;;;;;4.65;2.90;;;21.40;47.70;;;;;;5069670;28;20036;-78
2023/07/30 08:07:07;;;;;;;6.80;3.47;;;21.30;47.60;;;;;;5069429;28;20070;-78
2023/07/30 08:09:35;;;;;;;7.65;4.05;;;21.20;47.80;;;;;;5071658;28;20391;-77
2023/07/30 08:12:02;;;;;;;10.70;7.05;;;21.10;49.90;;;;;;5055916;28;20471;-79
2023/07/30 08:14:31;;;;;;;19.77;9.15;;;21.00;48.40;;;;;;5068381;28;20483;-78
2023/07/30 08:16:58;;;;;;;18.55;8.00;;;21.00;48.40;;;;;;5061447;28;20037;-78
2023/07/30 08:19:26;;;;;;;12.32;7.15;;;20.90;48.40;;;;;;5050139;28;20446;-81
2023/07/30 08:21:56;;;;;;;13.45;6.82;;;20.80;48.50;;;;;;5033991;28;20025;-78
2023/07/30 08:24:24;;;;;;;9.93;6.07;;;20.80;48.60;;;;;;5047784;28;20036;-77
2023/07/30 08:26:51;;;;;;;9.15;5.90;;;20.70;48.60;;;;;;5053169;28;20056;-79
2023/07/30 08:29:18;;;;;;;12.75;6.90;;;20.60;48.90;;;;;;5045075;28;20133;-82
2023/07/30 08:31:46;;;;;;;19.88;8.43;;;20.50;48.50;;;;;;5073589;28;20483;-79
2023/07/30 08:34:13;;;;;;;16.80;8.32;;;20.40;48.80;;;;;;5070829;28;20021;-79
2023/07/30 08:36:41;;;;;;;23.50;11.40;;;20.30;49.80;;;;;;5073475;28;20037;-78
2023/07/30 08:39:08;;;;;;;22.38;11.75;;;20.30;49.20;;;;;;5052178;28;20040;-78
2023/07/30 08:41:36;;;;;;;23.85;12.18;;;20.20;49.20;;;;;;5052323;28;20056;-82
2023/07/30 08:44:03;;;;;;;27.35;11.02;;;20.10;49.60;;;;;;5052826;28;20029;-81
2023/07/30 08:46:31;;;;;;;20.33;10.15;;;20.00;50.70;;;;;;5072403;28;20025;-78
2023/07/30 08:48:58;;;;;;;19.48;9.75;;;20.00;50.30;;;;;;5068122;28;20024;-80
2023/07/30 08:51:27;;;;;;;18.33;9.80;;;19.80;51.00;;;;;;5073262;28;20017;-79
2023/07/30 08:53:57;;;;;;;16.88;8.40;;;19.80;51.60;;;;;;5073329;28;20490;-78
2023/07/30 08:56:25;;;;;;;14.20;8.35;;;19.70;52.80;;;;;;5073293;28;20111;-77
2023/07/30 08:58:57;;;;;;;16.17;7.75;;;19.70;52.10;;;;;;5066638;28;20070;-79
2023/07/30 09:01:34;;;;;;;12.55;7.70;;;19.60;53.50;;;;;;5051755;28;20032;-81
2023/07/30 09:04:02;;;;;;;11.63;7.25;;;19.60;52.40;;;;;;5056322;28;20408;-78
2023/07/30 09:06:30;;;;;;;15.70;8.05;;;19.50;53.00;;;;;;5052803;28;20029;-80
2023/07/30 09:08:59;;;;;;;11.98;6.55;;;19.50;53.20;;;;;;5060115;28;20412;-84
2023/07/30 09:11:30;;;;;;;11.10;6.57;;;19.50;53.80;;;;;;5060446;28;20021;-85
2023/07/30 09:13:58;;;;;;;13.27;7.32;;;19.40;53.40;;;;;;5057381;28;20079;-83
2023/07/30 09:16:26;;;;;;;10.40;6.47;;;19.30;55.60;;;;;;5050285;28;20217;-84
2023/07/30 09:18:54;;;;;;;11.85;6.47;;;19.30;54.00;;;;;;5032543;28;20476;-84
2023/07/30 09:21:34;;;;;;;12.00;6.70;;;19.20;54.20;;;;;;5044824;28;20351;-83
2023/07/30 09:24:07;;;;;;;12.48;6.68;;;19.20;54.10;;;;;;5070437;28;20364;-84
2023/07/30 09:26:43;;;;;;;8.82;6.15;;;19.10;55.90;;;;;;5073272;28;20475;-83
2023/07/30 09:29:11;;;;;;;11.15;6.43;;;19.10;54.80;;;;;;5064818;28;20059;-83
2023/07/30 09:32:08;;;;;;;11.57;6.90;;;19.10;55.40;;;;;;5051870;28;20364;-83
2023/07/30 09:34:36;;;;;;;9.57;5.53;;;19.00;56.40;;;;;;5051520;28;20391;-82
2023/07/30 09:37:03;;;;;;;8.73;5.85;;;19.00;56.80;;;;;;5057594;28;20443;-82
2023/07/30 09:39:30;;;;;;;7.63;5.00;;;19.00;55.50;;;;;;5050111;28;20052;-81
2023/07/30 09:42:01;;;;;;;10.75;6.45;;;19.00;56.00;;;;;;5053255;28;20108;-83
2023/07/30 09:44:33;;;;;;;11.60;5.25;;;18.90;56.30;;;;;;5051602;28;20352;-82
2023/07/30 09:47:06;;;;;;;9.15;5.60;;;18.80;56.10;;;;;;5060695;28;20472;-81
2023/07/30 09:49:34;;;;;;;11.02;6.88;;;18.80;56.50;;;;;;5072866;28;20029;-85
2023/07/30 09:52:03;;;;;;;7.30;4.60;;;18.90;56.20;;;;;;5065212;28;20021;-86
2023/07/30 09:54:32;;;;;;;8.57;6.68;;;18.90;55.60;;;;;;5051607;28;20379;-84
2023/07/30 09:57:00;;;;;;;5.47;3.50;;;19.00;54.20;;;;;;5065722;28;20509;-79
2023/07/30 09:59:27;;;;;;;6.70;4.55;;;19.00;52.30;;;;;;5059199;28;20511;-86
2023/07/30 10:01:55;;;;;;;6.78;4.97;;;19.00;52.60;;;;;;5054215;28;20080;-84
2023/07/30 10:04:23;;;;;;;7.75;4.05;;;19.10;52.00;;;;;;5052667;28;20040;-84
2023/07/30 10:06:59;;;;;;;6.80;5.10;;;19.10;52.60;;;;;;5048072;28;20033;-85
2023/07/30 10:09:38;;;;;;;6.90;4.55;;;19.10;53.40;;;;;;5054703;28;20037;-86
2023/07/30 10:12:06;;;;;;;5.13;3.55;;;19.10;52.70;;;;;;5053210;28;20176;-84
2023/07/30 10:14:34;;;;;;;5.43;2.90;;;19.10;53.20;;;;;;5048750;28;20044;-85
2023/07/30 10:17:01;;;;;;;10.80;9.23;;;19.00;51.90;;;;;;5053534;28;20086;-85
2023/07/30 10:19:31;;;;;;;5.35;4.10;;;19.00;52.80;;;;;;5057826;28;20029;-81
2023/07/30 10:22:22;;;;;;;6.32;3.50;;;19.00;52.10;;;;;;5068310;28;20017;-84
2023/07/30 10:25:06;;;;;;;4.40;3.10;;;19.10;51.70;;;;;;5040734;28;20182;-85
2023/07/30 10:27:46;;;;;;;6.50;2.90;;;19.00;52.10;;;;;;5050151;28;20033;-86
2023/07/30 10:30:19;;;;;;;6.68;4.82;;;19.00;51.70;;;;;;5050039;28;20049;-84
2023/07/30 10:32:59;;;;;;;3.95;2.50;;;19.00;53.10;;;;;;5047384;28;20399;-84
2023/07/30 10:36:09;;;;;;;4.93;2.40;;;19.00;52.00;;;;;;5051640;28;20079;-85
2023/07/30 10:38:36;;;;;;;5.20;4.03;;;19.00;52.30;;;;;;5052040;28;20033;-84
2023/07/30 10:41:11;;;;;;;5.43;3.20;;;18.90;53.30;;;;;;5052773;28;20388;-84
2023/07/30 10:43:41;;;;;;;5.57;3.28;;;19.00;53.20;;;;;;5050629;28;20025;-88
2023/07/30 10:46:12;;;;;;;3.63;2.70;;;18.90;53.90;;;;;;5049991;28;20060;-83
2023/07/30 10:48:42;;;;;;;3.80;2.63;;;18.90;53.70;;;;;;5050147;28;20021;-83
2023/07/30 10:51:15;;;;;;;6.32;4.15;;;19.00;54.40;;;;;;5054842;28;20083;-83
2023/07/30 10:53:50;;;;;;;5.80;4.78;;;19.00;55.00;;;;;;5055674;28;20128;-82
2023/07/30 10:56:24;;;;;;;7.33;5.60;;;19.00;56.50;;;;;;5056774;28;20086;-84
2023/07/30 10:58:55;;;;;;;5.78;4.97;;;19.00;55.60;;;;;;5069443;28;20355;-83
2023/07/30 11:01:26;;;;;;;4.30;3.08;;;19.00;56.50;;;;;;5047583;28;20043;-85
2023/07/30 11:03:54;;;;;;;6.35;5.75;;;19.00;55.60;;;;;;5054457;28;20029;-83
2023/07/30 11:06:26;;;;;;;5.85;2.97;;;19.00;56.80;;;;;;5054335;28;20040;-82
2023/07/30 11:08:53;;;;;;;5.75;4.13;;;18.90;54.50;;;;;;5056182;28;20024;-83
2023/07/30 11:11:24;;;;;;;5.53;2.95;;;18.80;53.80;;;;;;5059188;28;20029;-83
2023/07/30 11:13:52;;;;;;;3.58;2.50;;;18.80;54.00;;;;;;5056787;28;20025;-84
2023/07/30 11:16:19;;;;;;;4.70;2.45;;;18.80;55.20;;;;;;5050952;28;20037;-80
2023/07/30 11:18:47;;;;;;;5.22;3.20;;;18.80;56.20;;;;;;5062767;28;20087;-83
2023/07/30 11:21:18;;;;;;;5.63;4.28;;;18.80;56.00;;;;;;5061711;28;20435;-81
2023/07/30 11:23:47;;;;;;;3.28;2.20;;;18.80;55.70;;;;;;5054719;28;20028;-82
2023/07/30 11:26:17;;;;;;;8.13;3.75;;;18.80;55.50;;;;;;5055138;28;20083;-83
2023/07/30 11:28:45;;;;;;;4.70;2.28;;;18.70;55.10;;;;;;5054405;28;21810;-81
2023/07/30 11:31:21;;;;;;;4.65;2.05;;;18.70;54.20;;;;;;5053087;28;20025;-79
2023/07/30 11:33:51;;;;;;;3.25;2.55;;;18.50;53.70;;;;;;5053482;28;20032;-84
2023/07/30 11:36:24;;;;;;;5.13;3.53;;;18.40;54.20;;;;;;5057950;28;20024;-82
2023/07/30 11:38:53;;;;;;;5.53;4.03;;;18.40;55.80;;;;;;5058172;28;20115;-80
2023/07/30 11:41:22;;;;;;;3.65;2.50;;;18.50;57.30;;;;;;5052517;28;20012;-80
2023/07/30 11:43:51;;;;;;;4.63;2.88;;;18.50;55.70;;;;;;5053683;28;20468;-84
2023/07/30 11:46:22;;;;;;;4.47;3.75;;;18.50;56.30;;;;;;5051628;28;20019;-83
2023/07/30 11:48:51;;;;;;;5.75;3.35;;;18.50;57.20;;;;;;5053507;28;20060;-84
2023/07/30 11:51:32;;;;;;;4.65;2.70;;;18.50;56.70;;;;;;5047248;28;20028;-84
2023/07/30 11:54:01;;;;;;;2.75;2.20;;;18.60;58.10;;;;;;5048415;28;20018;-84
2023/07/30 11:56:39;;;;;;;4.82;3.70;;;18.60;58.10;;;;;;5050260;28;20037;-81
2023/07/30 11:59:11;;;;;;;3.22;2.60;;;18.50;58.60;;;;;;5047137;28;20112;-81
2023/07/30 12:01:38;;;;;;;3.10;2.10;;;18.50;59.00;;;;;;5061343;28;20085;-81
2023/07/30 12:04:07;;;;;;;4.22;3.42;;;18.40;56.60;;;;;;5064376;28;20054;-82
2023/07/30 12:06:44;;;;;;;6.30;2.83;;;18.40;58.90;;;;;;5052883;28;20021;-79
2023/07/30 12:09:21;;;;;;;2.45;1.92;;;18.40;58.30;;;;;;5053290;28;20037;-82
2023/07/30 12:11:56;;;;;;;5.28;3.67;;;18.30;55.70;;;;;;5052128;28;20021;-81
2023/07/30 12:14:33;;;;;;;6.68;4.00;;;18.10;57.40;;;;;;5051656;28;20484;-82
2023/07/30 12:17:03;;;;;;;3.00;2.28;;;18.00;57.60;;;;;;5052025;28;20037;-82
2023/07/30 12:19:31;;;;;;;3.67;2.38;;;18.00;57.00;;;;;;5053001;28;20412;-83
2023/07/30 12:21:58;;;;;;;7.93;2.58;;;17.90;57.60;;;;;;5062192;28;20082;-82
2023/07/30 12:24:25;;;;;;;3.30;2.22;;;17.80;56.60;;;;;;5051479;28;20064;-78
2023/07/30 12:26:53;;;;;;;5.55;2.88;;;17.80;59.60;;;;;;5057155;28;20020;-77
2023/07/30 12:29:23;;;;;;;5.70;3.03;;;17.80;60.30;;;;;;5060289;28;20029;-77
2023/07/30 12:31:53;;;;;;;2.85;1.98;;;17.80;59.60;;;;;;5049854;28;20035;-78
2023/07/30 12:34:22;;;;;;;4.00;1.92;;;17.70;58.80;;;;;;5052953;28;20418;-79
2023/07/30 12:36:50;;;;;;;4.15;2.13;;;17.70;60.80;;;;;;5064268;28;20531;-80
2023/07/30 12:39:17;;;;;;;3.72;2.30;;;17.70;59.80;;;;;;5056214;28;20119;-79
2023/07/30 12:41:45;;;;;;;3.80;2.13;;;17.50;58.60;;;;;;5054241;28;20029;-78
2023/07/30 12:44:12;;;;;;;5.60;2.13;;;17.50;59.50;;;;;;5069279;28;20498;-78
2023/07/30 12:46:39;;;;;;;3.20;2.10;;;17.50;59.70;;;;;;5052297;28;20100;-82
2023/07/30 12:49:07;;;;;;;2.45;1.83;;;17.40;60.00;;;;;;5055299;28;20035;-77
2023/07/30 12:51:34;;;;;;;5.97;1.83;;;17.30;60.60;;;;;;5055088;28;20073;-77
2023/07/30 12:54:02;;;;;;;1.85;1.75;;;17.30;60.10;;;;;;5052711;28;20036;-79